createdAt,value
2023-01-21T00:06:42.175Z,14.95
2023-01-21T00:16:43.556Z,14.85
2023-01-21T00:26:45.024Z,14.70
2023-01-21T00:36:46.408Z,14.56
2023-01-21T00:46:47.788Z,14.41
2023-01-21T00:56:49.175Z,14.31
2023-01-21T01:06:50.919Z,14.35
2023-01-21T01:16:52.301Z,14.51
2023-01-21T01:26:53.734Z,14.67
2023-01-21T01:36:55.111Z,14.87
2023-01-21T01:46:56.509Z,15.02
2023-01-21T01:57:00.128Z,15.10
2023-01-21T02:07:01.580Z,15.20
2023-01-21T02:17:40.557Z,15.28
2023-01-21T02:27:57.338Z,15.33
2023-01-21T02:38:03.540Z,15.42
2023-01-21T02:48:14.955Z,15.48
2023-01-21T02:58:16.751Z,15.50
2023-01-21T03:08:22.199Z,15.52
2023-01-21T03:18:33.965Z,15.42
2023-01-21T03:28:37.687Z,15.28
2023-01-21T03:38:45.137Z,15.15
2023-01-21T03:48:52.732Z,15.00
2023-01-21T03:58:54.177Z,14.87
2023-01-21T04:08:55.571Z,14.71
2023-01-21T04:18:56.960Z,14.59
2023-01-21T04:28:58.478Z,14.43
2023-01-21T04:38:59.846Z,14.33
2023-01-21T04:49:01.394Z,14.52
2023-01-21T04:59:02.915Z,14.68
2023-01-21T05:09:04.499Z,14.86
2023-01-21T05:19:06.017Z,15.05
2023-01-21T05:29:07.429Z,15.24
2023-01-21T05:39:08.813Z,15.37
2023-01-21T05:49:10.432Z,15.46
2023-01-21T05:59:11.807Z,15.52
2023-01-21T06:09:13.196Z,15.50
2023-01-21T06:19:14.572Z,15.51
2023-01-21T06:29:15.943Z,15.51
2023-01-21T06:39:17.328Z,15.58
2023-01-21T06:49:18.767Z,15.63
2023-01-21T06:59:20.199Z,15.69
2023-01-21T07:09:21.760Z,15.70
2023-01-21T07:19:23.313Z,15.72
2023-01-21T07:29:24.891Z,15.68
2023-01-21T07:39:26.843Z,15.69
2023-01-21T07:49:28.361Z,15.79
2023-01-21T07:59:29.876Z,15.84
2023-01-21T08:09:31.403Z,15.94
2023-01-21T08:19:32.789Z,15.97
2023-01-21T08:29:34.191Z,15.98
2023-01-21T08:39:35.602Z,16.01
2023-01-21T08:49:36.984Z,16.03
2023-01-21T08:59:38.649Z,16.02
2023-01-21T09:09:40.055Z,16.08
2023-01-21T09:19:41.563Z,16.09
2023-01-21T09:29:42.952Z,16.14
2023-01-21T09:39:44.377Z,16.18
2023-01-21T09:49:48.279Z,16.22
2023-01-21T10:00:07.985Z,16.26
2023-01-21T10:10:21.822Z,16.25
2023-01-21T10:20:53.376Z,16.26
2023-01-21T10:30:56.714Z,16.26
2023-01-21T10:41:39.156Z,16.28
2023-01-21T10:51:44.920Z,16.30
2023-01-21T11:01:47.271Z,16.32
2023-01-21T11:11:48.660Z,16.29
2023-01-21T11:22:05.989Z,16.34
2023-01-21T11:32:19.694Z,16.37
2023-01-21T11:42:21.186Z,16.37
2023-01-21T11:52:22.584Z,16.39
2023-01-21T12:02:31.487Z,16.41
2023-01-21T12:12:38.765Z,16.48
2023-01-21T12:23:00.478Z,16.50
2023-01-21T12:33:04.575Z,16.50
2023-01-21T12:43:08.669Z,16.56
2023-01-21T12:53:09.916Z,16.60
2023-01-21T13:03:34.857Z,16.59
2023-01-21T13:13:57.804Z,16.61
2023-01-21T13:24:17.136Z,16.41
2023-01-21T13:34:34.069Z,16.26
2023-01-21T13:44:39.933Z,16.14
2023-01-21T13:54:54.786Z,16.00
2023-01-21T14:05:17.799Z,15.86
2023-01-21T14:15:34.757Z,15.73
2023-01-21T14:25:55.301Z,15.59
2023-01-21T14:36:02.682Z,15.47
2023-01-21T14:46:19.224Z,15.41
2023-01-21T14:56:27.783Z,15.28
2023-01-21T15:06:29.169Z,15.22
2023-01-21T15:16:35.650Z,15.15
2023-01-21T15:26:37.143Z,15.05
2023-01-21T15:36:50.238Z,14.94
2023-01-21T15:46:58.904Z,14.86
2023-01-21T15:57:23.386Z,14.75
2023-01-21T16:07:55.019Z,14.70
2023-01-21T16:18:14.661Z,14.62
2023-01-21T16:28:16.263Z,14.58
2023-01-21T16:38:22.454Z,14.65
2023-01-21T16:48:25.644Z,14.82
2023-01-21T16:58:29.402Z,15.03
2023-01-21T17:08:30.819Z,15.22
2023-01-21T17:18:40.025Z,15.34
2023-01-21T17:28:57.511Z,15.45
2023-01-21T17:38:59.296Z,15.57
2023-01-21T17:49:05.601Z,15.67
2023-01-21T17:59:37.426Z,15.73
2023-01-21T18:09:38.802Z,15.81
2023-01-21T18:19:40.203Z,15.80
2023-01-21T18:29:43.349Z,15.70
2023-01-21T18:39:44.821Z,15.58
2023-01-21T18:49:49.351Z,15.45
2023-01-21T18:59:50.802Z,15.31
2023-01-21T19:09:52.865Z,15.20
2023-01-21T19:19:54.439Z,15.09
2023-01-21T19:29:56.065Z,14.98
2023-01-21T19:39:57.449Z,14.86
2023-01-21T19:49:58.819Z,14.81
2023-01-21T20:00:00.253Z,14.83
2023-01-21T20:10:01.662Z,14.92
2023-01-21T20:20:16.793Z,15.09
2023-01-21T20:30:23.463Z,15.28
2023-01-21T20:40:27.019Z,15.39
2023-01-21T20:50:35.862Z,15.47
2023-01-21T21:00:37.330Z,15.56
2023-01-21T21:10:38.918Z,15.65
2023-01-21T21:20:40.440Z,15.73
2023-01-21T21:30:43.060Z,15.78
2023-01-21T21:40:45.164Z,15.84
2023-01-21T21:50:46.561Z,15.86
2023-01-21T22:00:52.474Z,15.82
2023-01-21T22:10:58.825Z,15.73
2023-01-21T22:21:27.431Z,15.58
2023-01-21T22:31:30.205Z,15.44
2023-01-21T22:41:31.907Z,15.27
2023-01-21T22:51:33.883Z,15.15
2023-01-21T23:01:36.509Z,15.00
2023-01-21T23:11:38.241Z,14.85
2023-01-21T23:21:40.209Z,14.76
2023-01-21T23:31:41.662Z,14.83
2023-01-21T23:41:43.278Z,14.97
2023-01-21T23:51:45.605Z,15.07
